Time;durP1;ratioP1;P1;durP2;ratioP2;P2;SDS_P1;SDS_P2;PMS_P1;PMS_P2;Temp;Humidity;BMP_temperature;BMP_pressure;BME280_temperature;BME280_humidity;BME280_pressure;Samples;Min_cycle;Max_cycle;Signal;HPM_P1;HPM_P2
2023/03/02 00:00:52;;;;;;;19.10;16.60;;;;;;;;;;5012489;28;20212;-69
2023/03/02 00:03:17;;;;;;;20.83;17.07;;;;;;;;;;5010690;28;20275;-68
2023/03/02 00:05:45;;;;;;;20.90;17.17;;;;;;;;;;5012383;28;20671;-68
2023/03/02 00:08:11;;;;;;;21.20;17.83;;;;;;;;;;5010561;28;20258;-68
2023/03/02 00:10:37;;;;;;;20.53;17.70;;;;;;;;;;5010247;28;20216;-68
2023/03/02 00:13:02;;;;;;;22.63;18.67;;;;;;;;;;5010244;28;20207;-68
2023/03/02 00:15:27;;;;;;;22.77;18.23;;;;;;;;;;5015808;28;20574;-68
2023/03/02 00:17:53;;;;;;;22.87;18.97;;;;;;;;;;5030925;28;20208;-68
2023/03/02 00:20:18;;;;;;;23.87;20.10;;;;;;;;;;5030973;28;20239;-68
2023/03/02 00:22:44;;;;;;;25.53;20.90;;;;;;;;;;5030927;28;20227;-69
2023/03/02 00:25:09;;;;;;;29.20;22.87;;;;;;;;;;5031154;28;20215;-68
2023/03/02 00:27:34;;;;;;;26.93;20.33;;;;;;;;;;5031597;28;20320;-69
2023/03/02 00:30:00;;;;;;;25.87;21.87;;;;;;;;;;5030948;28;20204;-68
2023/03/02 00:32:25;;;;;;;32.80;22.87;;;;;;;;;;5030956;28;20212;-69
2023/03/02 00:34:50;;;;;;;29.00;22.57;;;;;;;;;;5031452;28;20208;-69
2023/03/02 00:37:16;;;;;;;28.30;22.47;;;;;;;;;;5030296;28;20204;-69
2023/03/02 00:39:41;;;;;;;28.23;22.20;;;;;;;;;;5030034;28;20218;-69
2023/03/02 00:42:06;;;;;;;29.43;22.07;;;;;;;;;;5030914;28;20234;-68
2023/03/02 00:44:31;;;;;;;28.93;22.57;;;;;;;;;;5030603;28;20219;-68
2023/03/02 00:46:57;;;;;;;29.13;22.63;;;;;;;;;;5014932;28;20209;-69
2023/03/02 00:49:22;;;;;;;28.83;21.80;;;;;;;;;;5010811;28;20218;-68
2023/03/02 00:51:47;;;;;;;26.87;21.00;;;;;;;;;;5010616;28;20576;-69
2023/03/02 00:54:13;;;;;;;28.33;22.37;;;;;;;;;;5010809;28;20262;-68
2023/03/02 00:56:38;;;;;;;30.07;21.90;;;;;;;;;;5011460;28;20231;-68
2023/03/02 00:59:04;;;;;;;28.50;21.43;;;;;;;;;;5009991;28;20679;-68
2023/03/02 01:01:29;;;;;;;30.90;22.87;;;;;;;;;;5011031;28;20208;-69
2023/03/02 01:03:55;;;;;;;29.53;21.40;;;;;;;;;;5011269;28;20271;-69
2023/03/02 01:06:20;;;;;;;28.17;21.23;;;;;;;;;;5009767;28;20216;-68
2023/03/02 01:08:46;;;;;;;28.10;21.57;;;;;;;;;;5011098;28;20582;-68
2023/03/02 01:11:12;;;;;;;26.73;20.37;;;;;;;;;;5010776;28;20240;-69
2023/03/02 01:13:37;;;;;;;26.83;21.10;;;;;;;;;;5010161;28;20585;-69
2023/03/02 01:16:02;;;;;;;27.13;21.40;;;;;;;;;;5010712;28;20211;-68
2023/03/02 01:18:28;;;;;;;30.00;21.60;;;;;;;;;;5010987;28;20224;-68
2023/03/02 01:21:01;;;;;;;29.63;22.23;;;;;;;;;;5009833;28;20212;-69
2023/03/02 01:23:26;;;;;;;29.10;21.90;;;;;;;;;;5050066;28;20585;-69
2023/03/02 01:25:52;;;;;;;29.60;22.37;;;;;;;;;;5045814;28;20208;-69
2023/03/02 01:28:17;;;;;;;30.47;22.47;;;;;;;;;;5011626;28;20693;-69
2023/03/02 01:30:42;;;;;;;27.93;21.67;;;;;;;;;;5010666;28;20232;-69
2023/03/02 01:33:08;;;;;;;30.67;23.20;;;;;;;;;;5009609;28;20302;-69
2023/03/02 01:35:33;;;;;;;29.67;22.17;;;;;;;;;;5010610;28;20208;-69
2023/03/02 01:37:58;;;;;;;31.23;22.80;;;;;;;;;;5010576;28;20208;-69
2023/03/02 01:40:24;;;;;;;28.70;21.97;;;;;;;;;;5009587;28;20209;-69
2023/03/02 01:42:51;;;;;;;29.97;22.57;;;;;;;;;;5010688;28;20303;-69
2023/03/02 01:45:34;;;;;;;31.30;22.27;;;;;;;;;;5013225;28;20243;-69
2023/03/02 01:48:00;;;;;;;28.30;21.17;;;;;;;;;;5013519;28;20278;-69
2023/03/02 01:50:25;;;;;;;28.60;21.07;;;;;;;;;;5010072;28;20263;-69
2023/03/02 01:52:50;;;;;;;28.10;21.73;;;;;;;;;;5010550;28;20204;-69
2023/03/02 01:55:17;;;;;;;30.10;21.50;;;;;;;;;;5008123;28;20624;-68
2023/03/02 01:57:43;;;;;;;29.97;22.97;;;;;;;;;;5009355;28;20216;-69
2023/03/02 02:00:10;;;;;;;28.93;21.23;;;;;;;;;;5009965;28;20598;-68
2023/03/02 02:02:36;;;;;;;29.87;22.37;;;;;;;;;;5008592;28;20485;-69
2023/03/02 02:05:01;;;;;;;29.50;22.10;;;;;;;;;;5010022;28;20633;-67
2023/03/02 02:07:26;;;;;;;28.30;21.80;;;;;;;;;;5010176;28;20220;-68
2023/03/02 02:09:53;;;;;;;29.60;21.70;;;;;;;;;;5011348;28;20221;-69
2023/03/02 02:12:19;;;;;;;28.77;20.97;;;;;;;;;;5014028;28;20219;-69
2023/03/02 02:14:44;;;;;;;27.93;20.73;;;;;;;;;;5014227;28;20701;-69
2023/03/02 02:17:10;;;;;;;27.33;20.63;;;;;;;;;;5029421;28;20219;-68
2023/03/02 02:19:36;;;;;;;28.10;21.67;;;;;;;;;;5032521;28;20731;-69
2023/03/02 02:22:01;;;;;;;26.63;20.47;;;;;;;;;;5033144;28;20564;-68
2023/03/02 02:24:29;;;;;;;27.00;20.33;;;;;;;;;;5033159;28;20223;-69
2023/03/02 02:26:54;;;;;;;29.20;22.10;;;;;;;;;;5033643;28;20216;-69
2023/03/02 02:29:21;;;;;;;29.43;22.13;;;;;;;;;;5031532;28;20269;-69
2023/03/02 02:31:47;;;;;;;29.80;21.90;;;;;;;;;;5013602;28;20220;-69
2023/03/02 02:34:12;;;;;;;29.03;21.87;;;;;;;;;;5021186;28;20281;-69
2023/03/02 02:36:39;;;;;;;27.70;20.60;;;;;;;;;;5022917;28;20667;-69
2023/03/02 02:39:05;;;;;;;28.47;21.47;;;;;;;;;;5018827;28;20216;-65
2023/03/02 02:41:32;;;;;;;30.27;21.87;;;;;;;;;;5018451;28;20500;-68
2023/03/02 02:43:58;;;;;;;28.97;21.73;;;;;;;;;;5014504;28;20654;-68
2023/03/02 02:46:23;;;;;;;29.30;21.63;;;;;;;;;;5005003;28;20219;-67
2023/03/02 02:48:48;;;;;;;29.33;21.00;;;;;;;;;;5003554;28;20675;-68
2023/03/02 02:51:15;;;;;;;26.97;20.37;;;;;;;;;;5022571;28;20765;-68
2023/03/02 02:53:43;;;;;;;30.83;22.20;;;;;;;;;;5022398;28;20258;-68
2023/03/02 02:56:09;;;;;;;29.73;21.50;;;;;;;;;;5022081;28;20223;-68
2023/03/02 02:58:36;;;;;;;27.70;20.57;;;;;;;;;;5022981;28;20732;-68
2023/03/02 03:01:01;;;;;;;29.80;21.03;;;;;;;;;;5021664;28;20214;-67
2023/03/02 03:03:29;;;;;;;27.50;20.03;;;;;;;;;;5022280;28;20232;-68
2023/03/02 03:05:56;;;;;;;30.00;21.67;;;;;;;;;;5000518;28;20220;-68
2023/03/02 03:08:52;;;;;;;29.87;21.17;;;;;;;;;;5014789;28;20520;-67
2023/03/02 03:11:22;;;;;;;29.03;20.93;;;;;;;;;;5019078;28;20242;-67
2023/03/02 03:13:47;;;;;;;30.53;21.03;;;;;;;;;;5023157;28;20227;-68
2023/03/02 03:16:13;;;;;;;28.73;20.60;;;;;;;;;;5011547;28;20208;-68
2023/03/02 03:18:41;;;;;;;26.90;19.57;;;;;;;;;;5002953;28;20691;-68
2023/03/02 03:21:06;;;;;;;30.07;20.80;;;;;;;;;;5022535;28;20265;-67
2023/03/02 03:23:32;;;;;;;29.47;20.30;;;;;;;;;;5022257;28;20228;-68
2023/03/02 03:25:57;;;;;;;28.97;20.33;;;;;;;;;;5017043;28;20528;-68
2023/03/02 03:28:22;;;;;;;28.27;19.97;;;;;;;;;;4996496;28;20630;-68
2023/03/02 03:30:48;;;;;;;30.60;20.97;;;;;;;;;;4996402;28;20219;-68
2023/03/02 03:33:13;;;;;;;30.60;21.27;;;;;;;;;;4996131;28;20227;-68
2023/03/02 03:35:38;;;;;;;31.50;21.70;;;;;;;;;;5003711;28;20216;-68
2023/03/02 03:38:04;;;;;;;29.73;20.23;;;;;;;;;;5022177;28;20758;-67
2023/03/02 03:40:33;;;;;;;30.90;20.93;;;;;;;;;;5017390;28;20215;-68
2023/03/02 03:42:58;;;;;;;29.23;19.57;;;;;;;;;;5019111;28;20228;-67
2023/03/02 03:45:23;;;;;;;30.37;20.53;;;;;;;;;;5028134;28;20223;-67
2023/03/02 03:47:49;;;;;;;31.27;21.07;;;;;;;;;;5011892;28;20208;-68
2023/03/02 03:50:14;;;;;;;31.03;21.20;;;;;;;;;;5012125;28;20695;-67
2023/03/02 03:52:39;;;;;;;31.60;21.63;;;;;;;;;;5012482;28;20578;-67
2023/03/02 03:55:05;;;;;;;33.73;22.53;;;;;;;;;;5011192;28;20223;-67
2023/03/02 03:57:30;;;;;;;33.67;21.43;;;;;;;;;;5012344;28;20211;-68
2023/03/02 03:59:55;;;;;;;33.87;21.53;;;;;;;;;;5012404;28;20232;-68
2023/03/02 04:02:21;;;;;;;34.57;23.20;;;;;;;;;;5011149;28;20235;-67
2023/03/02 04:04:46;;;;;;;33.10;22.27;;;;;;;;;;5012402;28;20738;-67
2023/03/02 04:07:11;;;;;;;35.37;22.93;;;;;;;;;;5011944;28;20217;-67
2023/03/02 04:09:38;;;;;;;32.70;21.67;;;;;;;;;;5011069;28;20212;-67
2023/03/02 04:12:03;;;;;;;33.70;22.80;;;;;;;;;;5011728;28;20243;-67
2023/03/02 04:14:28;;;;;;;35.50;22.93;;;;;;;;;;5012024;28;20216;-67
2023/03/02 04:16:54;;;;;;;36.47;22.73;;;;;;;;;;5010041;28;20236;-67
2023/03/02 04:19:19;;;;;;;35.33;22.63;;;;;;;;;;5011699;28;20573;-67
2023/03/02 04:21:46;;;;;;;36.50;22.90;;;;;;;;;;5011234;28;20248;-68
2023/03/02 04:24:12;;;;;;;36.03;22.93;;;;;;;;;;5011316;28;20215;-67
2023/03/02 04:26:38;;;;;;;34.87;22.67;;;;;;;;;;5011590;28;20208;-67
2023/03/02 04:29:03;;;;;;;34.60;21.70;;;;;;;;;;5010715;28;20524;-67
2023/03/02 04:31:30;;;;;;;34.77;22.27;;;;;;;;;;5011651;28;20227;-68
2023/03/02 04:33:55;;;;;;;34.97;22.60;;;;;;;;;;5011309;28;20205;-68
2023/03/02 04:36:20;;;;;;;33.33;21.27;;;;;;;;;;5010504;28;20220;-67
2023/03/02 04:38:46;;;;;;;35.27;21.97;;;;;;;;;;5011640;28;20251;-68
2023/03/02 04:41:11;;;;;;;32.53;21.07;;;;;;;;;;5011023;28;20580;-67
2023/03/02 04:43:36;;;;;;;34.03;21.80;;;;;;;;;;5021504;28;20224;-67
2023/03/02 04:46:02;;;;;;;31.33;20.93;;;;;;;;;;5011042;28;20212;-67
2023/03/02 04:48:27;;;;;;;32.63;20.83;;;;;;;;;;5011690;28;20208;-68
2023/03/02 04:50:52;;;;;;;32.57;19.87;;;;;;;;;;5004505;28;20294;-68
2023/03/02 04:53:18;;;;;;;32.20;20.30;;;;;;;;;;5010857;28;20204;-67
2023/03/02 04:55:43;;;;;;;29.57;20.33;;;;;;;;;;5010939;28;20216;-67
2023/03/02 04:58:08;;;;;;;31.90;20.67;;;;;;;;;;5010222;28;20542;-67
2023/03/02 05:00:34;;;;;;;31.77;20.20;;;;;;;;;;5011329;28;20228;-67
2023/03/02 05:03:00;;;;;;;30.70;20.00;;;;;;;;;;5011215;28;20217;-67
2023/03/02 05:05:25;;;;;;;31.00;20.73;;;;;;;;;;5010333;28;20770;-67
2023/03/02 05:07:50;;;;;;;32.97;21.33;;;;;;;;;;5011139;28;20232;-67
2023/03/02 05:10:16;;;;;;;30.83;19.67;;;;;;;;;;5010448;28;20295;-67
2023/03/02 05:12:57;;;;;;;29.93;19.70;;;;;;;;;;5010199;28;20295;-68
2023/03/02 05:15:23;;;;;;;30.70;19.90;;;;;;;;;;5016576;28;20269;-67
2023/03/02 05:17:49;;;;;;;28.60;19.53;;;;;;;;;;5050658;28;20606;-67
2023/03/02 05:20:14;;;;;;;31.30;19.73;;;;;;;;;;5049423;28;20272;-68
2023/03/02 05:22:39;;;;;;;30.63;20.03;;;;;;;;;;5050487;28;20229;-68
2023/03/02 05:25:05;;;;;;;31.00;20.10;;;;;;;;;;5049271;28;20204;-67
2023/03/02 05:27:30;;;;;;;30.07;19.13;;;;;;;;;;5020443;28;20205;-68
2023/03/02 05:29:56;;;;;;;32.27;20.83;;;;;;;;;;5010813;28;20282;-68
2023/03/02 05:32:21;;;;;;;31.57;20.67;;;;;;;;;;5009667;28;20278;-67
2023/03/02 05:34:46;;;;;;;30.30;19.87;;;;;;;;;;5010950;28;20219;-68
2023/03/02 05:37:12;;;;;;;27.57;19.10;;;;;;;;;;5010576;28;20575;-68
2023/03/02 05:39:38;;;;;;;30.60;19.87;;;;;;;;;;5010141;28;20283;-68
2023/03/02 05:42:03;;;;;;;28.07;19.50;;;;;;;;;;4989460;28;20328;-67
2023/03/02 05:44:28;;;;;;;32.23;20.30;;;;;;;;;;4982655;28;20300;-68
2023/03/02 05:46:54;;;;;;;32.13;19.93;;;;;;;;;;4981115;28;20351;-68
2023/03/02 05:49:19;;;;;;;30.80;19.40;;;;;;;;;;4978252;28;20219;-68
2023/03/02 05:51:44;;;;;;;36.43;22.20;;;;;;;;;;4992686;28;20355;-68
2023/03/02 05:54:10;;;;;;;32.43;19.77;;;;;;;;;;4973405;28;20479;-67
2023/03/02 05:56:35;;;;;;;29.93;19.80;;;;;;;;;;4978047;28;20668;-68
2023/03/02 05:59:00;;;;;;;33.43;19.83;;;;;;;;;;4981914;28;20216;-68
2023/03/02 06:01:25;;;;;;;31.67;20.53;;;;;;;;;;4980637;28;20247;-67
2023/03/02 06:03:51;;;;;;;32.67;20.10;;;;;;;;;;5000723;28;20224;-68
2023/03/02 06:06:16;;;;;;;31.47;19.57;;;;;;;;;;5000235;28;20231;-68
2023/03/02 06:08:42;;;;;;;31.00;20.73;;;;;;;;;;4999855;28;20295;-66
2023/03/02 06:11:07;;;;;;;30.40;19.40;;;;;;;;;;4998243;28;20216;-66
2023/03/02 06:13:33;;;;;;;30.63;20.03;;;;;;;;;;4992822;28;20264;-66
2023/03/02 06:15:58;;;;;;;30.23;19.73;;;;;;;;;;4981246;28;20510;-66
2023/03/02 06:18:23;;;;;;;31.33;20.20;;;;;;;;;;4975084;28;20221;-66
2023/03/02 06:20:49;;;;;;;28.57;19.30;;;;;;;;;;4992856;28;20268;-66
2023/03/02 06:23:15;;;;;;;30.33;19.40;;;;;;;;;;4980278;28;20606;-66
2023/03/02 06:25:46;;;;;;;32.20;20.93;;;;;;;;;;4984407;28;20221;-66
2023/03/02 06:28:12;;;;;;;32.57;19.47;;;;;;;;;;4987846;28;20228;-66
2023/03/02 06:30:37;;;;;;;32.53;20.13;;;;;;;;;;4980782;28;20255;-66
2023/03/02 06:33:02;;;;;;;30.73;19.63;;;;;;;;;;4980481;28;20299;-66
2023/03/02 06:35:28;;;;;;;29.83;20.13;;;;;;;;;;4973817;28;20217;-66
2023/03/02 06:37:53;;;;;;;31.77;19.90;;;;;;;;;;4973536;28;20225;-67
2023/03/02 06:40:20;;;;;;;30.43;19.13;;;;;;;;;;4973433;28;20233;-66
2023/03/02 06:42:45;;;;;;;31.77;20.37;;;;;;;;;;4979574;28;20237;-66
2023/03/02 06:45:11;;;;;;;31.97;20.37;;;;;;;;;;4980977;28;20217;-66
2023/03/02 06:47:36;;;;;;;30.53;19.53;;;;;;;;;;4981093;28;20216;-67
2023/03/02 06:50:01;;;;;;;30.70;19.07;;;;;;;;;;4980343;28;20213;-65
2023/03/02 06:52:27;;;;;;;30.53;18.50;;;;;;;;;;4992061;28;20213;-66
2023/03/02 06:54:52;;;;;;;28.80;18.63;;;;;;;;;;5007531;28;20679;-66
2023/03/02 06:57:18;;;;;;;30.80;19.33;;;;;;;;;;5012641;28;20295;-65
2023/03/02 06:59:43;;;;;;;32.92;23.10;;;;;;;;;;5014862;28;20481;-66
2023/03/02 07:02:09;;;;;;;32.97;20.87;;;;;;;;;;5015038;28;20692;-66
2023/03/02 07:04:34;;;;;;;30.90;19.97;;;;;;;;;;5009034;28;20215;-66
2023/03/02 07:06:59;;;;;;;32.13;19.50;;;;;;;;;;5003691;28;20283;-66
2023/03/02 07:09:25;;;;;;;30.13;19.33;;;;;;;;;;5005158;28;20205;-66
2023/03/02 07:11:50;;;;;;;30.63;18.63;;;;;;;;;;5003491;28;20205;-66
2023/03/02 07:14:15;;;;;;;30.33;19.13;;;;;;;;;;5005000;28;20224;-66
2023/03/02 07:16:42;;;;;;;30.73;18.50;;;;;;;;;;5006097;28;20251;-66
2023/03/02 07:19:13;;;;;;;32.83;19.37;;;;;;;;;;5004577;28;20240;-66
2023/03/02 07:21:38;;;;;;;31.90;20.17;;;;;;;;;;5004649;28;20212;-67
2023/03/02 07:24:04;;;;;;;29.03;18.67;;;;;;;;;;5004238;28;20213;-66
2023/03/02 07:26:29;;;;;;;29.93;18.50;;;;;;;;;;5005930;28;20244;-66
2023/03/02 07:28:54;;;;;;;30.10;17.33;;;;;;;;;;5005993;28;20214;-66
2023/03/02 07:31:20;;;;;;;28.13;17.80;;;;;;;;;;5004286;28;20222;-67
2023/03/02 07:33:45;;;;;;;28.57;17.80;;;;;;;;;;5004805;28;20600;-67
2023/03/02 07:36:10;;;;;;;28.37;16.97;;;;;;;;;;5003174;28;20240;-66
2023/03/02 07:38:36;;;;;;;27.03;17.20;;;;;;;;;;5004865;28;20205;-67
2023/03/02 07:41:05;;;;;;;26.13;17.47;;;;;;;;;;5004453;28;20676;-69
2023/03/02 07:43:30;;;;;;;26.63;16.23;;;;;;;;;;5011942;28;20294;-64
2023/03/02 07:45:57;;;;;;;27.33;17.43;;;;;;;;;;5011461;28;21051;-66
2023/03/02 07:48:22;;;;;;;26.00;17.10;;;;;;;;;;5005457;28;20740;-66
2023/03/02 07:50:48;;;;;;;29.13;17.57;;;;;;;;;;5005067;28;20303;-65
2023/03/02 07:53:13;;;;;;;27.13;17.13;;;;;;;;;;5004671;28;20227;-65
2023/03/02 07:55:39;;;;;;;26.40;16.47;;;;;;;;;;5006988;28;20663;-65
2023/03/02 07:58:05;;;;;;;25.87;16.07;;;;;;;;;;5002909;28;20209;-65
2023/03/02 08:00:30;;;;;;;26.33;17.07;;;;;;;;;;5004000;28;20220;-65
2023/03/02 08:02:55;;;;;;;25.47;16.17;;;;;;;;;;5003257;28;20295;-66
2023/03/02 08:05:20;;;;;;;23.80;16.27;;;;;;;;;;5003070;28;20658;-66
2023/03/02 08:07:46;;;;;;;25.43;16.90;;;;;;;;;;5006992;28;20232;-66
2023/03/02 08:10:11;;;;;;;26.60;16.77;;;;;;;;;;5010846;28;20205;-66
2023/03/02 08:12:36;;;;;;;24.60;16.83;;;;;;;;;;5004795;28;20220;-67
2023/03/02 08:15:02;;;;;;;23.17;16.07;;;;;;;;;;5002549;28;20300;-65
2023/03/02 08:17:27;;;;;;;22.40;15.07;;;;;;;;;;5003085;28;20304;-64
2023/03/02 08:19:52;;;;;;;22.97;15.97;;;;;;;;;;5004846;28;20216;-65
2023/03/02 08:22:18;;;;;;;20.57;14.80;;;;;;;;;;5000915;28;20249;-66
2023/03/02 08:24:43;;;;;;;22.00;14.87;;;;;;;;;;5003537;28;20295;-66
2023/03/02 08:27:11;;;;;;;21.83;15.07;;;;;;;;;;5007927;28;20208;-65
2023/03/02 08:29:36;;;;;;;20.80;14.80;;;;;;;;;;5007356;28;20212;-66
2023/03/02 08:32:01;;;;;;;21.67;15.00;;;;;;;;;;5001788;28;20255;-65
2023/03/02 08:34:27;;;;;;;21.17;14.33;;;;;;;;;;5002935;28;20716;-66
2023/03/02 08:36:52;;;;;;;22.37;15.70;;;;;;;;;;4999275;28;20204;-66
2023/03/02 08:39:17;;;;;;;23.65;15.55;;;;;;;;;;5002681;28;20261;-65
2023/03/02 08:41:43;;;;;;;22.67;15.00;;;;;;;;;;5007629;28;20224;-66
2023/03/02 08:44:08;;;;;;;21.70;14.97;;;;;;;;;;5002861;28;20209;-65
2023/03/02 08:46:33;;;;;;;18.93;14.90;;;;;;;;;;5010019;28;20247;-66
2023/03/02 08:48:58;;;;;;;21.40;15.10;;;;;;;;;;5013053;28;20262;-65
2023/03/02 08:51:24;;;;;;;22.00;14.83;;;;;;;;;;5013289;28;20244;-65
2023/03/02 08:53:50;;;;;;;20.47;14.80;;;;;;;;;;5013792;28;20291;-65
2023/03/02 08:56:20;;;;;;;21.03;15.53;;;;;;;;;;5012404;28;20219;-64
2023/03/02 08:58:46;;;;;;;21.50;15.37;;;;;;;;;;5013689;28;20213;-65
2023/03/02 09:01:12;;;;;;;19.37;14.47;;;;;;;;;;5012674;28;20213;-65
2023/03/02 09:03:38;;;;;;;18.98;13.88;;;;;;;;;;5012357;28;20256;-65
2023/03/02 09:06:03;;;;;;;20.87;15.20;;;;;;;;;;5011555;28;20682;-65
2023/03/02 09:08:29;;;;;;;20.52;14.32;;;;;;;;;;5013309;28;20212;-65
2023/03/02 09:10:54;;;;;;;20.10;14.30;;;;;;;;;;5012556;28;20213;-65
2023/03/02 09:13:19;;;;;;;19.83;14.93;;;;;;;;;;5012800;28;20695;-65
2023/03/02 09:15:45;;;;;;;20.20;14.93;;;;;;;;;;5015604;28;20295;-68
2023/03/02 09:18:10;;;;;;;19.38;14.05;;;;;;;;;;5010662;28;20263;-65
2023/03/02 09:20:35;;;;;;;18.77;13.63;;;;;;;;;;5011445;28;20208;-66
2023/03/02 09:23:01;;;;;;;18.97;13.53;;;;;;;;;;5012405;28;20248;-64
2023/03/02 09:25:26;;;;;;;17.83;13.30;;;;;;;;;;5012435;28;20656;-65
2023/03/02 09:27:51;;;;;;;20.13;13.90;;;;;;;;;;5028200;28;20627;-65
2023/03/02 09:30:17;;;;;;;18.93;13.87;;;;;;;;;;5032299;28;20222;-65
2023/03/02 09:32:42;;;;;;;18.67;13.57;;;;;;;;;;5031500;28;20563;-65
2023/03/02 09:35:07;;;;;;;21.00;15.00;;;;;;;;;;5032245;28;20221;-65
2023/03/02 09:37:34;;;;;;;18.63;14.63;;;;;;;;;;5031159;28;20291;-65
2023/03/02 09:39:59;;;;;;;18.45;13.75;;;;;;;;;;5029749;28;20203;-66
2023/03/02 09:42:24;;;;;;;17.95;13.50;;;;;;;;;;5029844;28;20216;-65
2023/03/02 09:44:56;;;;;;;17.63;13.53;;;;;;;;;;5030309;28;20236;-65
2023/03/02 09:47:38;;;;;;;18.23;13.63;;;;;;;;;;5027152;28;20224;-65
2023/03/02 09:50:11;;;;;;;17.38;12.77;;;;;;;;;;5008954;28;20253;-65
2023/03/02 09:52:39;;;;;;;17.43;12.77;;;;;;;;;;5009895;28;20220;-65
2023/03/02 09:55:10;;;;;;;16.57;12.70;;;;;;;;;;5008046;28;20232;-65
2023/03/02 09:57:37;;;;;;;16.73;12.73;;;;;;;;;;5008830;28;20564;-66
2023/03/02 10:00:03;;;;;;;18.90;15.17;;;;;;;;;;5008003;28;20581;-65
2023/03/02 10:02:31;;;;;;;17.42;12.77;;;;;;;;;;5009606;28;20221;-65
2023/03/02 10:04:58;;;;;;;16.83;12.93;;;;;;;;;;5024631;28;20545;-67
2023/03/02 10:07:27;;;;;;;16.67;12.80;;;;;;;;;;5048850;28;20683;-65
2023/03/02 10:09:53;;;;;;;16.67;13.30;;;;;;;;;;5048696;28;20203;-65
2023/03/02 10:12:18;;;;;;;16.30;12.20;;;;;;;;;;5049623;28;20257;-65
2023/03/02 10:14:47;;;;;;;15.60;12.37;;;;;;;;;;5048886;28;20223;-65
2023/03/02 10:17:18;;;;;;;14.77;10.83;;;;;;;;;;5011273;28;20208;-65
2023/03/02 10:19:44;;;;;;;14.27;10.83;;;;;;;;;;5010590;28;20316;-65
2023/03/02 10:22:12;;;;;;;15.45;10.02;;;;;;;;;;5007837;28;20307;-65
2023/03/02 10:24:47;;;;;;;15.83;11.23;;;;;;;;;;5009069;28;20218;-65
2023/03/02 10:27:16;;;;;;;14.73;11.23;;;;;;;;;;5009699;28;20215;-65
2023/03/02 10:29:46;;;;;;;19.98;11.00;;;;;;;;;;5009669;28;20247;-65
2023/03/02 10:32:12;;;;;;;14.90;12.10;;;;;;;;;;5011748;28;20675;-65
2023/03/02 10:34:38;;;;;;;13.77;11.00;;;;;;;;;;5013320;28;20255;-65
2023/03/02 10:37:08;;;;;;;13.23;10.77;;;;;;;;;;5013672;28;20592;-65
2023/03/02 10:39:33;;;;;;;14.43;11.50;;;;;;;;;;5009847;28;20212;-65
2023/03/02 10:42:01;;;;;;;13.20;10.30;;;;;;;;;;5013113;28;20295;-65
2023/03/02 10:44:28;;;;;;;11.63;9.40;;;;;;;;;;5012182;28;20222;-65
2023/03/02 10:46:54;;;;;;;15.23;10.73;;;;;;;;;;5012249;28;20220;-65
2023/03/02 10:49:26;;;;;;;14.55;10.68;;;;;;;;;;5007022;28;20270;-65
2023/03/02 10:51:58;;;;;;;13.07;9.85;;;;;;;;;;5013798;28;20205;-65
2023/03/02 10:54:25;;;;;;;12.50;9.93;;;;;;;;;;5013124;28;20213;-65
2023/03/02 10:56:51;;;;;;;12.43;9.52;;;;;;;;;;5012913;28;20200;-65
2023/03/02 10:59:23;;;;;;;12.57;10.35;;;;;;;;;;5013221;28;20625;-65
2023/03/02 11:02:01;;;;;;;12.63;10.43;;;;;;;;;;5012861;28;20216;-65
2023/03/02 11:04:27;;;;;;;11.60;9.73;;;;;;;;;;5019044;28;20216;-65
2023/03/02 11:06:52;;;;;;;12.93;10.77;;;;;;;;;;5013334;28;20905;-65
2023/03/02 11:09:18;;;;;;;14.07;9.85;;;;;;;;;;5012905;28;20585;-65
2023/03/02 11:11:52;;;;;;;12.85;9.73;;;;;;;;;;5012979;28;20208;-65
2023/03/02 11:14:17;;;;;;;12.18;9.85;;;;;;;;;;5011437;28;20597;-65
2023/03/02 11:16:42;;;;;;;13.05;10.15;;;;;;;;;;5012159;28;20224;-65
2023/03/02 11:19:13;;;;;;;11.75;9.68;;;;;;;;;;5021564;28;20223;-65
2023/03/02 11:21:43;;;;;;;12.93;10.15;;;;;;;;;;5026615;28;20220;-65
2023/03/02 11:24:09;;;;;;;12.38;9.65;;;;;;;;;;5010647;28;20236;-65
2023/03/02 11:26:35;;;;;;;13.70;10.23;;;;;;;;;;5011579;28;20742;-65
2023/03/02 11:29:03;;;;;;;13.85;9.45;;;;;;;;;;4996509;28;20239;-64
2023/03/02 11:31:32;;;;;;;11.85;8.80;;;;;;;;;;4992512;28;20279;-65
2023/03/02 11:34:06;;;;;;;11.20;9.07;;;;;;;;;;4992881;28;20677;-65
2023/03/02 11:36:36;;;;;;;12.13;9.23;;;;;;;;;;4993037;28;20677;-65
2023/03/02 11:39:04;;;;;;;12.43;9.85;;;;;;;;;;4990958;28;20223;-64
2023/03/02 11:41:31;;;;;;;10.93;8.07;;;;;;;;;;4993178;28;20311;-65
2023/03/02 11:43:57;;;;;;;11.40;8.93;;;;;;;;;;4992877;28;20233;-65
2023/03/02 11:46:24;;;;;;;11.23;8.82;;;;;;;;;;4992314;28;20246;-65
2023/03/02 11:48:50;;;;;;;10.68;8.65;;;;;;;;;;4997979;28;20220;-65
2023/03/02 11:51:22;;;;;;;10.65;8.57;;;;;;;;;;5010418;28;20224;-65
2023/03/02 11:53:50;;;;;;;10.63;8.27;;;;;;;;;;5008696;28;20221;-65
2023/03/02 11:56:15;;;;;;;9.65;8.32;;;;;;;;;;5012152;28;20303;-65
2023/03/02 11:58:41;;;;;;;9.77;8.13;;;;;;;;;;5012412;28;20339;-65
2023/03/02 12:01:06;;;;;;;9.90;7.97;;;;;;;;;;5010072;28;20216;-65
2023/03/02 12:03:31;;;;;;;12.00;8.05;;;;;;;;;;5007333;28;20221;-66
2023/03/02 12:06:04;;;;;;;11.55;8.57;;;;;;;;;;5011270;28;20216;-66
2023/03/02 12:08:32;;;;;;;10.88;8.27;;;;;;;;;;5012001;28;20208;-66
2023/03/02 12:10:59;;;;;;;10.60;8.50;;;;;;;;;;5012168;28;20216;-66
2023/03/02 12:13:26;;;;;;;10.93;7.50;;;;;;;;;;5010738;28;20287;-66
2023/03/02 12:15:51;;;;;;;11.48;8.02;;;;;;;;;;5012169;28;20300;-66
2023/03/02 12:18:23;;;;;;;10.98;8.85;;;;;;;;;;5011375;28;20233;-66
2023/03/02 12:21:02;;;;;;;10.27;7.97;;;;;;;;;;4991337;28;20696;-66
2023/03/02 12:23:27;;;;;;;10.65;8.15;;;;;;;;;;4992032;28;20228;-68
2023/03/02 12:26:01;;;;;;;10.93;7.97;;;;;;;;;;4996104;28;20212;-66
2023/03/02 12:28:27;;;;;;;9.85;8.00;;;;;;;;;;5011143;28;20240;-66
2023/03/02 12:31:03;;;;;;;10.20;7.88;;;;;;;;;;5011684;28;20590;-66
2023/03/02 12:33:28;;;;;;;10.48;8.07;;;;;;;;;;5011097;28;20208;-66
2023/03/02 12:36:01;;;;;;;10.70;8.30;;;;;;;;;;5009983;28;20578;-66
2023/03/02 12:38:28;;;;;;;10.75;8.02;;;;;;;;;;5011423;28;20212;-66
2023/03/02 12:40:54;;;;;;;9.77;7.72;;;;;;;;;;5011625;28;20204;-67
2023/03/02 12:43:25;;;;;;;9.60;7.68;;;;;;;;;;5010217;28;20216;-66
2023/03/02 12:45:58;;;;;;;9.75;8.23;;;;;;;;;;5011763;28;20620;-66
2023/03/02 12:48:30;;;;;;;10.48;7.72;;;;;;;;;;5008781;28;20562;-66
2023/03/02 12:50:58;;;;;;;10.27;8.02;;;;;;;;;;5011215;28;20296;-66
2023/03/02 12:53:23;;;;;;;8.57;7.38;;;;;;;;;;5010476;28;20208;-66
2023/03/02 12:55:48;;;;;;;9.38;7.82;;;;;;;;;;5010741;28;20222;-67
2023/03/02 12:58:15;;;;;;;9.73;7.53;;;;;;;;;;5010990;28;20208;-66
2023/03/02 13:00:47;;;;;;;9.82;7.20;;;;;;;;;;5011187;28;20243;-66
2023/03/02 13:03:12;;;;;;;10.15;7.32;;;;;;;;;;5009346;28;20212;-66
2023/03/02 13:05:37;;;;;;;9.30;6.90;;;;;;;;;;5009733;28;20286;-66
2023/03/02 13:08:03;;;;;;;8.63;7.20;;;;;;;;;;5010725;28;20751;-66
2023/03/02 13:10:30;;;;;;;9.02;7.30;;;;;;;;;;5010388;28;20204;-66
2023/03/02 13:12:56;;;;;;;8.30;6.78;;;;;;;;;;5009703;28;20204;-66
2023/03/02 13:15:21;;;;;;;8.38;7.20;;;;;;;;;;5010534;28;20208;-66
2023/03/02 13:17:54;;;;;;;10.35;7.50;;;;;;;;;;5010004;28;20212;-66
2023/03/02 13:20:19;;;;;;;9.25;6.82;;;;;;;;;;5010584;28;20220;-66
2023/03/02 13:22:44;;;;;;;8.50;6.80;;;;;;;;;;5009177;28;20224;-66
2023/03/02 13:25:21;;;;;;;8.55;6.72;;;;;;;;;;5009714;28;20212;-65
2023/03/02 13:27:51;;;;;;;8.70;6.20;;;;;;;;;;5010736;28;20675;-66
2023/03/02 13:30:21;;;;;;;8.98;7.20;;;;;;;;;;5009763;28;20209;-66
2023/03/02 13:32:46;;;;;;;9.32;7.20;;;;;;;;;;5010446;28;20611;-66
2023/03/02 13:35:19;;;;;;;9.25;6.90;;;;;;;;;;5009063;28;20263;-66
2023/03/02 13:37:44;;;;;;;9.80;6.50;;;;;;;;;;5008432;28;20304;-66
2023/03/02 13:40:20;;;;;;;8.68;6.95;;;;;;;;;;5010235;28;20208;-66
2023/03/02 13:42:45;;;;;;;8.80;6.93;;;;;;;;;;5010491;28;20311;-66
2023/03/02 13:45:20;;;;;;;8.60;6.63;;;;;;;;;;5009538;28;20204;-66
2023/03/02 13:47:45;;;;;;;9.45;7.32;;;;;;;;;;5010560;28;20206;-66
2023/03/02 13:50:25;;;;;;;8.80;6.90;;;;;;;;;;4992804;28;20566;-66
2023/03/02 13:52:51;;;;;;;9.25;7.47;;;;;;;;;;4989921;28;20217;-66
2023/03/02 13:55:17;;;;;;;10.65;7.15;;;;;;;;;;4990518;28;20626;-66
2023/03/02 13:57:44;;;;;;;8.77;7.13;;;;;;;;;;4991013;28;20205;-66
2023/03/02 14:00:12;;;;;;;8.95;6.75;;;;;;;;;;4989981;28;20292;-66
2023/03/02 14:02:37;;;;;;;8.70;6.88;;;;;;;;;;4992946;28;20703;-66
2023/03/02 14:05:04;;;;;;;8.20;6.40;;;;;;;;;;4997715;28;20209;-66
2023/03/02 14:07:30;;;;;;;8.25;6.65;;;;;;;;;;4994036;28;20678;-66
2023/03/02 14:09:55;;;;;;;8.93;6.80;;;;;;;;;;4994865;28;20260;-66
2023/03/02 14:12:23;;;;;;;8.55;7.03;;;;;;;;;;4994284;28;20225;-66
2023/03/02 14:14:48;;;;;;;8.95;6.93;;;;;;;;;;4992648;28;20264;-66
2023/03/02 14:17:14;;;;;;;8.73;6.97;;;;;;;;;;5049959;28;20215;-66